Terminal Aerodrome Forecast
Issued by NWS

Current Version | Previous Version | Text Only | Print | Product List | Glossary Off
Versions: 1 2 3 4 5 6 7 8 9 10 11 12 13 14

000
FTUS41 KILN 242100 AAA
TAFLCK
TAF AMD
KLCK 242101Z 2421/2518 22013KT 3SM -SHRA VCTS OVC050CB
     FM242200 27025G40KT P6SM -RA OVC009
     FM250400 25020G30KT P6SM VCSH OVC015
     FM250800 24013G24KT P6SM VCSH OVC020
     FM251300 24012KT P6SM OVC020=

USA.gov is the U.S. government's official web portal to all federal, state and local government web resources and services.